Time;durP1;ratioP1;P1;durP2;ratioP2;P2;SDS_P1;SDS_P2;PMS_P1;PMS_P2;Temp;Humidity;BMP_temperature;BMP_pressure;BME280_temperature;BME280_humidity;BME280_pressure;Samples;Min_cycle;Max_cycle;Signal;HPM_P1;HPM_P2
2022/12/09 00:01:06;;;;;;;20.77;11.70;;;;;;;7.35;100.00;62759.34;4988781;28;20396;-77
2022/12/09 00:03:33;;;;;;;25.48;11.65;;;;;;;7.29;100.00;62748.09;4989763;28;20200;-78
2022/12/09 00:06:05;;;;;;;24.50;11.60;;;;;;;7.10;100.00;62733.53;4988571;28;20272;-78
2022/12/09 00:08:32;;;;;;;19.38;11.82;;;;;;;7.12;100.00;62732.56;4985798;28;20278;-80
2022/12/09 00:10:58;;;;;;;21.70;10.88;;;;;;;6.99;100.00;62722.19;4988115;28;20246;-78
2022/12/09 00:13:26;;;;;;;20.70;11.55;;;;;;;7.08;100.00;62726.41;4988844;28;20202;-77
2022/12/09 00:15:52;;;;;;;25.05;10.93;;;;;;;7.04;100.00;62724.81;4978591;28;20532;-77
2022/12/09 00:18:20;;;;;;;18.08;9.57;;;;;;;6.90;100.00;62710.38;4987989;28;20208;-78
2022/12/09 00:20:47;;;;;;;17.17;10.68;;;;;;;6.92;100.00;62710.44;4989433;28;20219;-77
2022/12/09 00:23:14;;;;;;;18.23;9.95;;;;;;;6.88;100.00;62706.31;4988263;28;20207;-78
2022/12/09 00:25:41;;;;;;;15.55;9.80;;;;;;;6.97;100.00;62717.59;4978423;28;20291;-79
2022/12/09 00:28:08;;;;;;;22.90;10.25;;;;;;;6.97;100.00;62713.06;4988019;28;20218;-78
2022/12/09 00:30:38;;;;;;;23.88;10.75;;;;;;;7.08;100.00;62723.88;4991249;28;20243;-82
2022/12/09 00:33:05;;;;;;;15.95;10.20;;;;;;;6.97;100.00;62715.59;4990707;28;20192;-81
2022/12/09 00:35:33;;;;;;;15.10;8.25;;;;;;;6.94;100.00;62714.50;4988499;28;20661;-79
2022/12/09 00:37:59;;;;;;;19.60;10.00;;;;;;;7.16;100.00;62734.69;4988904;28;20199;-79
2022/12/09 00:40:26;;;;;;;20.52;7.70;;;;;;;7.15;100.00;62736.16;4989797;28;20228;-79
2022/12/09 00:42:53;;;;;;;18.73;8.95;;;;;;;7.12;100.00;62730.56;4986899;28;20373;-80
2022/12/09 00:45:20;;;;;;;14.32;9.40;;;;;;;7.18;100.00;62739.25;4988124;28;20244;-81
2022/12/09 00:47:47;;;;;;;22.48;10.65;;;;;;;7.22;100.00;62738.34;4986929;28;20208;-78
2022/12/09 00:50:14;;;;;;;24.25;10.25;;;;;;;7.34;100.00;62755.25;4988265;28;20204;-80
2022/12/09 00:52:45;;;;;;;20.63;9.18;;;;;;;7.42;100.00;62766.06;4987697;28;20231;-79
2022/12/09 00:55:11;;;;;;;18.38;8.00;;;;;;;7.51;100.00;62767.72;4988004;28;20441;-80
2022/12/09 00:57:39;;;;;;;15.77;7.97;;;;;;;7.51;100.00;62773.31;4987679;28;20204;-78
2022/12/09 01:00:07;;;;;;;20.27;7.85;;;;;;;7.54;100.00;62775.91;4987070;28;20239;-81
2022/12/09 01:02:35;;;;;;;18.65;8.50;;;;;;;7.61;100.00;62786.19;4987659;28;20212;-80
2022/12/09 01:05:02;;;;;;;13.43;6.15;;;;;;;7.70;100.00;62787.88;4987124;28;20200;-78
2022/12/09 01:07:29;;;;;;;11.98;6.43;;;;;;;7.71;100.00;62793.97;4988065;28;20200;-80
2022/12/09 01:09:57;;;;;;;21.90;6.30;;;;;;;7.82;100.00;62805.31;4985768;28;20208;-81
2022/12/09 01:12:24;;;;;;;8.60;5.00;;;;;;;7.84;100.00;62804.34;4987323;28;20231;-80
2022/12/09 01:14:51;;;;;;;18.50;5.75;;;;;;;7.88;100.00;62811.00;4981950;28;20200;-78
2022/12/09 01:17:18;;;;;;;17.27;6.35;;;;;;;7.91;100.00;62816.63;4973722;28;20385;-79
2022/12/09 01:19:45;;;;;;;13.57;7.45;;;;;;;7.90;100.00;62816.09;4986211;28;20204;-81
2022/12/09 01:22:12;;;;;;;21.08;6.60;;;;;;;7.87;100.00;62809.97;4987578;28;20387;-78
2022/12/09 01:24:39;;;;;;;19.85;5.93;;;;;;;7.91;100.00;62814.63;4986580;28;20252;-78
2022/12/09 01:27:07;;;;;;;10.88;5.75;;;;;;;7.94;100.00;62817.72;4986095;28;20224;-79
2022/12/09 01:29:35;;;;;;;11.10;5.53;;;;;;;7.95;100.00;62813.69;4986170;28;20216;-79
2022/12/09 01:32:02;;;;;;;15.75;5.35;;;;;;;8.00;100.00;62818.31;4987641;28;20423;-80
2022/12/09 01:34:30;;;;;;;7.85;5.13;;;;;;;7.83;100.00;62803.31;4987348;28;20234;-80
2022/12/09 01:36:56;;;;;;;13.27;5.57;;;;;;;7.77;100.00;62797.09;4986124;28;20317;-78
2022/12/09 01:39:23;;;;;;;15.65;5.50;;;;;;;7.80;100.00;62802.75;4986216;28;20515;-80
2022/12/09 01:41:51;;;;;;;7.38;4.40;;;;;;;7.91;100.00;62811.56;4986527;28;20227;-80
2022/12/09 01:44:22;;;;;;;14.43;5.55;;;;;;;7.93;100.00;62814.16;4986374;28;20199;-78
2022/12/09 01:46:50;;;;;;;14.13;5.13;;;;;;;7.93;100.00;62816.69;4986160;28;20252;-80
2022/12/09 01:49:20;;;;;;;15.50;5.00;;;;;;;7.96;100.00;62819.25;4987134;28;20224;-77
2022/12/09 01:51:54;;;;;;;9.90;5.50;;;;;;;7.97;100.00;62812.69;4986718;28;20456;-77
2022/12/09 01:54:21;;;;;;;12.77;6.13;;;;;;;8.00;100.00;62821.38;4975069;28;20283;-78
2022/12/09 01:56:48;;;;;;;7.18;5.50;;;;;;;8.07;100.00;62828.09;4984323;28;20224;-78
2022/12/09 01:59:16;;;;;;;8.43;5.18;;;;;;;8.07;100.00;62830.63;4986721;28;20422;-78
2022/12/09 02:01:50;;;;;;;9.57;5.20;;;;;;;8.03;100.00;62826.50;4987643;28;20532;-79
2022/12/09 02:04:17;;;;;;;11.43;5.32;;;;;;;7.99;100.00;62819.81;4984933;28;20551;-77
2022/12/09 02:06:44;;;;;;;11.80;4.43;;;;;;;7.76;100.00;62804.22;4987118;28;20227;-80
2022/12/09 02:09:11;;;;;;;15.02;5.00;;;;;;;7.88;100.00;62811.53;4987180;28;20259;-77
2022/12/09 02:11:49;;;;;;;14.68;5.70;;;;;;;7.91;100.00;62814.63;4985908;28;20239;-77
2022/12/09 02:14:20;;;;;;;15.43;5.65;;;;;;;7.94;100.00;62817.72;4986751;28;20195;-80
2022/12/09 02:16:56;;;;;;;10.65;5.15;;;;;;;7.88;100.00;62811.00;4987004;28;20243;-78
2022/12/09 02:19:43;;;;;;;13.45;6.00;;;;;;;7.92;100.00;62815.66;4987238;28;20187;-77
2022/12/09 02:22:15;;;;;;;11.40;4.90;;;;;;;7.87;100.00;62807.94;4984062;28;20228;-78
2022/12/09 02:24:49;;;;;;;17.00;6.43;;;;;;;7.86;100.00;62808.94;4986896;28;20212;-80
2022/12/09 02:27:21;;;;;;;12.95;5.65;;;;;;;7.89;100.00;62812.56;4986218;28;20254;-77
2022/12/09 02:30:07;;;;;;;11.85;5.72;;;;;;;7.90;100.00;62813.56;4984972;28;20207;-79
2022/12/09 02:32:57;;;;;;;13.93;5.45;;;;;;;7.88;100.00;62811.53;4985964;28;20236;-77
2022/12/09 02:35:32;;;;;;;8.85;5.32;;;;;;;7.84;100.00;62806.88;4986313;28;20219;-79
2022/12/09 02:38:04;;;;;;;16.17;6.60;;;;;;;7.78;100.00;62795.63;4986047;28;20287;-80
2022/12/09 02:40:36;;;;;;;15.20;5.30;;;;;;;7.76;100.00;62793.53;4981715;28;20665;-80
2022/12/09 02:43:06;;;;;;;13.02;5.97;;;;;;;7.75;100.00;62798.09;4972422;28;20273;-80
2022/12/09 02:45:37;;;;;;;10.15;5.25;;;;;;;7.78;100.00;62805.75;4970840;28;20276;-78
2022/12/09 02:48:08;;;;;;;8.95;5.82;;;;;;;7.78;100.00;62798.66;4982780;28;20231;-80
2022/12/09 02:50:39;;;;;;;13.50;4.93;;;;;;;7.79;100.00;62806.78;4989153;28;20220;-78
2022/12/09 02:53:10;;;;;;;17.27;6.43;;;;;;;7.75;100.00;62793.03;4991084;28;20242;-80
2022/12/09 02:55:38;;;;;;;11.15;5.60;;;;;;;7.68;100.00;62785.81;4990150;28;20467;-77
2022/12/09 02:58:05;;;;;;;13.27;6.00;;;;;;;7.70;100.00;62792.41;4989247;28;20204;-78
2022/12/09 03:00:32;;;;;;;13.18;5.97;;;;;;;7.73;100.00;62793.50;4989364;28;20227;-76
2022/12/09 03:03:02;;;;;;;13.30;5.88;;;;;;;7.77;100.00;62797.09;4990465;28;20220;-78
2022/12/09 03:05:44;;;;;;;17.70;6.55;;;;;;;7.81;100.00;62801.75;4989239;28;20532;-77
2022/12/09 03:08:17;;;;;;;10.57;4.90;;;;;;;7.82;100.00;62805.31;4988282;28;20215;-78
2022/12/09 03:10:52;;;;;;;16.10;5.32;;;;;;;7.93;100.00;62816.69;4988999;28;20387;-79
2022/12/09 03:13:33;;;;;;;12.23;5.35;;;;;;;7.90;100.00;62810.53;4989731;28;20199;-80
2022/12/09 03:16:05;;;;;;;12.88;5.18;;;;;;;7.91;100.00;62814.09;4988265;28;20336;-77
2022/12/09 03:18:36;;;;;;;12.35;4.80;;;;;;;7.96;100.00;62819.78;4989427;28;20203;-78
2022/12/09 03:21:06;;;;;;;13.10;5.32;;;;;;;7.97;100.00;62818.28;4989568;28;20339;-79
2022/12/09 03:23:35;;;;;;;17.70;5.20;;;;;;;8.06;100.00;62830.09;4988426;28;20235;-77
2022/12/09 03:26:05;;;;;;;11.00;5.78;;;;;;;8.13;100.00;62836.81;4988366;28;20429;-77
2022/12/09 03:28:35;;;;;;;14.57;5.30;;;;;;;8.07;100.00;62830.63;4989007;28;20204;-79
2022/12/09 03:31:08;;;;;;;21.88;5.35;;;;;;;8.11;100.00;62835.25;4988550;28;20220;-76
2022/12/09 03:33:35;;;;;;;14.45;5.30;;;;;;;8.06;100.00;62827.03;4988752;28;20208;-78
2022/12/09 03:36:06;;;;;;;14.25;5.25;;;;;;;8.18;100.00;62837.44;4988572;28;20262;-78
2022/12/09 03:38:38;;;;;;;15.85;4.43;;;;;;;8.18;100.00;62839.97;4988740;28;20459;-77
2022/12/09 03:41:11;;;;;;;10.32;5.70;;;;;;;8.18;100.00;62841.97;4990188;28;20259;-78
2022/12/09 03:43:44;;;;;;;11.43;5.15;;;;;;;8.11;100.00;62830.19;4988284;28;20513;-81
2022/12/09 03:46:10;;;;;;;9.80;4.80;;;;;;;8.23;100.00;62849.16;4989455;28;20219;-80
2022/12/09 03:48:37;;;;;;;17.35;6.72;;;;;;;8.09;100.00;62828.13;4989039;28;20260;-79
2022/12/09 03:51:12;;;;;;;14.57;5.30;;;;;;;8.08;100.00;62832.16;4987499;28;20232;-78
2022/12/09 03:53:44;;;;;;;13.57;5.65;;;;;;;8.07;100.00;62830.63;4976530;28;20200;-78
2022/12/09 03:56:19;;;;;;;19.60;6.30;;;;;;;8.08;100.00;62834.72;4969620;28;20228;-79
2022/12/09 03:58:53;;;;;;;13.93;6.43;;;;;;;7.94;100.00;62817.72;4971373;28;20240;-80
2022/12/09 04:01:22;;;;;;;14.55;6.07;;;;;;;7.87;100.00;62810.47;4985208;28;20279;-79
2022/12/09 04:03:51;;;;;;;13.75;5.95;;;;;;;7.90;100.00;62808.00;4989493;28;20204;-79
2022/12/09 04:06:21;;;;;;;24.88;6.07;;;;;;;7.95;100.00;62815.69;4991080;28;20220;-80
2022/12/09 04:08:52;;;;;;;15.23;5.63;;;;;;;7.68;100.00;62788.34;4989126;28;20200;-81
2022/12/09 04:11:20;;;;;;;20.95;6.15;;;;;;;7.87;100.00;62810.47;4990658;28;20215;-79
2022/12/09 04:13:47;;;;;;;20.27;6.00;;;;;;;7.93;100.00;62816.69;4991041;28;20200;-81
2022/12/09 04:16:14;;;;;;;19.70;5.40;;;;;;;7.99;100.00;62819.81;4973483;28;20227;-78
2022/12/09 04:18:41;;;;;;;16.08;6.03;;;;;;;7.99;100.00;62820.34;4978401;28;20204;-77
2022/12/09 04:21:10;;;;;;;9.82;5.28;;;;;;;8.07;100.00;62831.16;4990099;28;20228;-80
2022/12/09 04:23:40;;;;;;;25.20;6.13;;;;;;;8.07;100.00;62828.63;4990513;28;20196;-79
2022/12/09 04:26:15;;;;;;;13.57;5.60;;;;;;;8.04;100.00;62827.53;4990683;28;20220;-81
2022/12/09 04:28:42;;;;;;;9.52;5.35;;;;;;;8.04;100.00;62822.97;4990091;28;20203;-78
2022/12/09 04:31:11;;;;;;;17.75;6.38;;;;;;;8.07;100.00;62826.06;4988410;28;20220;-77
2022/12/09 04:33:39;;;;;;;15.82;6.07;;;;;;;8.05;100.00;62823.50;4987098;28;20455;-79
2022/12/09 04:36:07;;;;;;;10.63;5.70;;;;;;;8.10;100.00;62834.25;4988179;28;20252;-77
2022/12/09 04:38:33;;;;;;;24.85;6.10;;;;;;;8.16;100.00;62842.97;4988206;28;20203;-79
2022/12/09 04:41:03;;;;;;;18.92;6.90;;;;;;;8.16;100.00;62842.47;4986879;28;20226;-78
2022/12/09 04:43:30;;;;;;;11.82;5.70;;;;;;;8.17;100.00;62838.94;4987591;28;20214;-80
2022/12/09 04:46:00;;;;;;;16.70;6.28;;;;;;;8.11;100.00;62830.19;4985560;28;20226;-77
2022/12/09 04:48:28;;;;;;;11.20;5.18;;;;;;;8.10;100.00;62831.19;4988087;28;20367;-78
2022/12/09 04:50:55;;;;;;;14.07;6.68;;;;;;;8.13;100.00;62837.34;4985955;28;20215;-79
2022/12/09 04:53:22;;;;;;;21.20;6.32;;;;;;;8.15;100.00;62838.88;4987237;28;20290;-78
2022/12/09 04:55:50;;;;;;;16.98;7.57;;;;;;;8.10;100.00;62836.78;4971383;28;20228;-79
2022/12/09 04:58:18;;;;;;;17.33;6.75;;;;;;;8.18;100.00;62834.38;4967938;28;20205;-78
2022/12/09 05:00:45;;;;;;;22.25;7.55;;;;;;;8.18;100.00;62839.44;4979719;28;20409;-79
2022/12/09 05:03:13;;;;;;;19.48;7.10;;;;;;;8.22;100.00;62843.56;4988222;28;20208;-78
2022/12/09 05:05:40;;;;;;;18.20;7.10;;;;;;;8.18;100.00;62834.38;4986751;28;20220;-78
2022/12/09 05:08:07;;;;;;;25.55;7.85;;;;;;;8.29;100.00;62850.81;4988146;28;20219;-80
2022/12/09 05:10:35;;;;;;;18.80;7.78;;;;;;;8.25;100.00;62846.69;4988638;28;20224;-80
2022/12/09 05:13:02;;;;;;;19.27;8.25;;;;;;;8.26;100.00;62844.69;4987306;28;20287;-79
2022/12/09 05:15:30;;;;;;;13.85;7.82;;;;;;;8.25;100.00;62849.22;4987087;28;20307;-78
2022/12/09 05:17:58;;;;;;;14.80;6.93;;;;;;;8.33;100.00;62854.97;4985713;28;20500;-77
2022/12/09 05:20:28;;;;;;;16.98;7.10;;;;;;;8.33;100.00;62851.91;4986637;28;20219;-79
2022/12/09 05:22:55;;;;;;;19.50;7.15;;;;;;;8.28;100.00;62851.81;4986822;28;20539;-79
2022/12/09 05:25:22;;;;;;;13.20;6.57;;;;;;;8.40;100.00;62864.22;4986931;28;20239;-77
2022/12/09 05:27:49;;;;;;;29.77;8.32;;;;;;;8.36;100.00;62857.53;4986849;28;20208;-77
2022/12/09 05:30:17;;;;;;;19.52;7.55;;;;;;;8.26;100.00;62847.72;4986329;28;20207;-76
2022/12/09 05:32:45;;;;;;;20.58;7.13;;;;;;;8.21;100.00;62845.09;4985937;28;20236;-79
2022/12/09 05:35:12;;;;;;;22.75;6.93;;;;;;;8.17;100.00;62840.94;4986581;28;20196;-80
2022/12/09 05:37:39;;;;;;;13.63;6.32;;;;;;;8.19;100.00;62843.53;4986714;28;20204;-80
2022/12/09 05:40:07;;;;;;;16.83;6.82;;;;;;;8.17;100.00;62835.88;4986096;28;20259;-79
2022/12/09 05:42:34;;;;;;;19.73;6.70;;;;;;;8.09;100.00;62828.13;4987083;28;20262;-78
2022/12/09 05:45:01;;;;;;;14.90;7.88;;;;;;;7.82;100.00;62802.78;4987415;28;20200;-78
2022/12/09 05:47:29;;;;;;;17.60;9.00;;;;;;;7.88;100.00;62808.47;4986688;28;20243;-80
2022/12/09 05:49:58;;;;;;;27.65;10.27;;;;;;;7.88;100.00;62808.47;4985972;28;20246;-77
2022/12/09 05:52:25;;;;;;;22.27;9.38;;;;;;;7.90;100.00;62818.66;4985942;28;20350;-81
2022/12/09 05:54:52;;;;;;;19.88;10.15;;;;;;;7.85;100.00;62807.91;4987219;28;20263;-79
2022/12/09 05:57:19;;;;;;;28.33;11.75;;;;;;;7.93;100.00;62811.09;4984161;28;20227;-80
2022/12/09 05:59:45;;;;;;;23.27;10.57;;;;;;;7.96;100.00;62814.72;4987106;28;20214;-78
2022/12/09 06:02:12;;;;;;;30.15;10.85;;;;;;;7.95;100.00;62821.28;4987021;28;20227;-78
2022/12/09 06:04:39;;;;;;;26.13;9.52;;;;;;;8.03;100.00;62829.03;4986910;28;20208;-78
2022/12/09 06:07:08;;;;;;;20.58;9.00;;;;;;;7.96;100.00;62819.25;4982759;28;20231;-78
2022/12/09 06:09:35;;;;;;;18.40;8.23;;;;;;;7.97;100.00;62817.78;4976134;28;20232;-79
2022/12/09 06:12:03;;;;;;;19.58;10.48;;;;;;;8.01;100.00;62821.88;4982737;28;20342;-80
2022/12/09 06:14:30;;;;;;;18.30;9.52;;;;;;;7.98;100.00;62813.72;4982933;28;20394;-79
2022/12/09 06:16:57;;;;;;;20.42;10.07;;;;;;;7.96;100.00;62824.31;4980129;28;20467;-78
2022/12/09 06:19:23;;;;;;;25.42;11.02;;;;;;;7.79;100.00;62797.16;4985086;28;20202;-78
2022/12/09 06:21:50;;;;;;;20.45;10.65;;;;;;;7.80;100.00;62800.22;4985070;28;20244;-80
2022/12/09 06:24:19;;;;;;;24.27;11.77;;;;;;;7.89;100.00;62814.56;4977731;28;20255;-79
2022/12/09 06:26:46;;;;;;;19.77;10.15;;;;;;;7.95;100.00;62813.16;4988991;28;20231;-77
2022/12/09 06:29:13;;;;;;;17.83;9.95;;;;;;;8.00;100.00;62815.78;4984477;28;20468;-78
2022/12/09 06:31:40;;;;;;;26.52;9.82;;;;;;;7.88;100.00;62809.00;4971894;28;20524;-80
2022/12/09 06:34:07;;;;;;;21.77;9.18;;;;;;;7.76;100.00;62796.59;4982136;28;20239;-79
2022/12/09 06:36:35;;;;;;;26.05;8.88;;;;;;;7.90;100.00;62813.06;4986774;28;20227;-80
2022/12/09 06:39:03;;;;;;;17.38;8.77;;;;;;;7.96;100.00;62816.72;4988132;28;20260;-79
2022/12/09 06:41:31;;;;;;;20.15;9.00;;;;;;;8.00;100.00;62821.38;4973062;28;20216;-77
2022/12/09 06:43:59;;;;;;;23.65;8.23;;;;;;;8.03;100.00;62829.53;4980492;28;20273;-78
2022/12/09 06:46:27;;;;;;;24.85;8.07;;;;;;;8.05;100.00;62829.09;4975116;28;20225;-78
2022/12/09 06:48:55;;;;;;;22.27;8.98;;;;;;;8.08;100.00;62831.66;4977719;28;20200;-77
2022/12/09 06:51:24;;;;;;;24.35;8.57;;;;;;;8.13;100.00;62832.25;4970441;28;20264;-80
2022/12/09 06:53:51;;;;;;;18.95;8.38;;;;;;;7.98;100.00;62816.25;4988467;28;20224;-78
2022/12/09 06:56:18;;;;;;;16.85;7.93;;;;;;;8.12;100.00;62833.78;4986107;28;20543;-79
2022/12/09 06:58:47;;;;;;;21.23;8.55;;;;;;;8.23;100.00;62846.63;4983995;28;20223;-77
2022/12/09 07:01:16;;;;;;;18.75;7.80;;;;;;;8.26;100.00;62850.28;4989759;28;20231;-77
2022/12/09 07:03:45;;;;;;;16.63;6.43;;;;;;;8.12;100.00;62838.84;4990318;28;20227;-79
2022/12/09 07:06:20;;;;;;;12.82;6.47;;;;;;;8.24;100.00;62850.22;4988538;28;20220;-78
2022/12/09 07:08:47;;;;;;;21.20;7.57;;;;;;;8.31;100.00;62857.97;4990482;28;20192;-83
2022/12/09 07:11:14;;;;;;;19.05;7.78;;;;;;;8.39;100.00;62860.66;4990527;28;20220;-77
2022/12/09 07:13:41;;;;;;;15.80;7.25;;;;;;;8.44;100.00;62868.84;4990291;28;20238;-80
2022/12/09 07:16:10;;;;;;;27.17;7.70;;;;;;;8.57;100.00;62876.69;4985805;28;20223;-77
2022/12/09 07:18:37;;;;;;;19.90;7.70;;;;;;;8.62;100.00;62884.41;4989185;28;20391;-77
2022/12/09 07:21:07;;;;;;;16.13;8.32;;;;;;;8.50;100.00;62875.06;4989753;28;20231;-80
2022/12/09 07:23:34;;;;;;;14.98;7.50;;;;;;;8.63;100.00;62885.94;4991242;28;20251;-78
2022/12/09 07:26:04;;;;;;;20.73;6.90;;;;;;;8.67;100.00;62892.63;4989535;28;20240;-81
2022/12/09 07:28:31;;;;;;;18.58;7.93;;;;;;;8.73;100.00;62898.81;4995789;28;20196;-80
2022/12/09 07:30:58;;;;;;;22.48;10.40;;;;;;;8.83;100.00;62908.63;4992842;28;20220;-82
2022/12/09 07:33:27;;;;;;;32.75;9.60;;;;;;;8.92;100.00;62921.00;4984702;28;20237;-79
2022/12/09 07:35:55;;;;;;;22.35;8.55;;;;;;;8.65;100.00;62890.03;4971946;28;20289;-80
2022/12/09 07:38:23;;;;;;;14.18;7.85;;;;;;;8.65;100.00;62882.41;4973212;28;20205;-79
2022/12/09 07:40:49;;;;;;;18.77;8.20;;;;;;;8.79;100.00;62907.56;4970868;28;20283;-77
2022/12/09 07:43:16;;;;;;;21.88;7.82;;;;;;;8.84;100.00;62912.19;4983550;28;20200;-81
2022/12/09 07:45:44;;;;;;;18.00;8.18;;;;;;;8.94;100.00;62914.91;4989183;28;20219;-78
2022/12/09 07:48:11;;;;;;;19.52;8.85;;;;;;;9.12;100.00;62936.06;4988316;28;20208;-81
2022/12/09 07:50:40;;;;;;;23.63;10.00;;;;;;;9.21;100.00;62947.91;4975540;28;20240;-78
2022/12/09 07:53:07;;;;;;;18.05;9.57;;;;;;;9.29;100.00;62959.25;4989569;28;20239;-78
2022/12/09 07:55:36;;;;;;;17.70;10.73;;;;;;;9.26;100.00;62956.16;4982205;28;20225;-81
2022/12/09 07:58:04;;;;;;;27.00;11.82;;;;;;;9.12;100.00;62936.59;4972203;28;20239;-78
2022/12/09 08:00:30;;;;;;;24.25;11.50;;;;;;;9.28;100.00;62953.13;4973423;28;20306;-77
2022/12/09 08:02:57;;;;;;;29.25;11.57;;;;;;;9.31;100.00;62956.22;4971222;28;20436;-79
2022/12/09 08:05:24;;;;;;;28.73;13.57;;;;;;;9.33;100.00;62960.31;4982565;28;20298;-78
2022/12/09 08:07:53;;;;;;;20.83;11.57;;;;;;;9.26;100.00;62953.59;4987969;28;20521;-79
2022/12/09 08:10:26;;;;;;;24.05;11.13;;;;;;;9.32;100.00;62959.81;4989494;28;20230;-81
2022/12/09 08:12:54;;;;;;;23.73;10.45;;;;;;;9.27;100.00;62951.56;4979214;28;20303;-81
2022/12/09 08:15:20;;;;;;;22.95;11.05;;;;;;;9.24;100.00;62945.94;4970513;28;20426;-80
2022/12/09 08:17:47;;;;;;;28.65;11.98;;;;;;;9.38;100.00;62960.41;4969398;28;20207;-80
2022/12/09 08:20:14;;;;;;;25.75;11.73;;;;;;;9.54;100.00;62981.53;4989687;28;20211;-79
2022/12/09 08:22:41;;;;;;;30.17;13.10;;;;;;;9.69;100.00;63000.09;4988974;28;20208;-80
2022/12/09 08:25:10;;;;;;;26.63;13.38;;;;;;;9.90;100.00;63013.66;4990281;28;20204;-78
2022/12/09 08:27:37;;;;;;;29.50;14.10;;;;;;;9.86;100.00;63012.59;4978970;28;20210;-79
2022/12/09 08:30:06;;;;;;;34.08;14.73;;;;;;;10.00;100.00;63024.53;4988836;28;20196;-81
2022/12/09 08:32:33;;;;;;;32.22;13.18;;;;;;;10.15;100.00;63042.06;4988918;28;20412;-79
2022/12/09 08:35:00;;;;;;;35.80;14.05;;;;;;;9.91;100.00;63012.66;4986002;28;20201;-79
2022/12/09 08:37:27;;;;;;;29.48;15.35;;;;;;;9.92;100.00;63020.81;4987911;28;20218;-81
2022/12/09 08:39:54;;;;;;;33.90;17.10;;;;;;;9.65;100.00;62990.34;4986305;28;20234;-80
2022/12/09 08:42:23;;;;;;;32.97;17.83;;;;;;;9.65;100.00;62990.88;4987651;28;20229;-81
2022/12/09 08:44:50;;;;;;;28.83;15.80;;;;;;;9.87;100.00;63016.16;4986106;28;20214;-79
2022/12/09 08:47:17;;;;;;;30.45;13.55;;;;;;;9.74;100.00;63002.19;4988325;28;20228;-79
2022/12/09 08:49:44;;;;;;;22.48;12.93;;;;;;;9.48;100.00;62975.31;4988517;28;20203;-82
2022/12/09 08:52:11;;;;;;;25.70;12.55;;;;;;;9.74;100.00;63002.72;4990058;28;20223;-79
2022/12/09 08:54:38;;;;;;;26.35;11.48;;;;;;;9.78;100.00;63001.25;4982125;28;20405;-79
2022/12/09 08:57:05;;;;;;;24.77;11.27;;;;;;;9.50;100.00;62980.44;4969243;29;20231;-77
2022/12/09 08:59:37;;;;;;;24.50;11.55;;;;;;;9.47;100.00;62979.88;4983030;28;20251;-80
2022/12/09 09:02:04;;;;;;;23.95;12.38;;;;;;;9.57;100.00;62985.13;4987684;28;20349;-77
2022/12/09 09:04:32;;;;;;;26.70;12.48;;;;;;;9.56;100.00;62984.09;4988369;28;20204;-79
2022/12/09 09:07:00;;;;;;;30.67;13.63;;;;;;;9.40;100.00;62962.47;4990073;28;20267;-80
2022/12/09 09:09:26;;;;;;;25.33;14.15;;;;;;;9.16;100.00;62943.25;4989082;28;20207;-79
2022/12/09 09:11:53;;;;;;;28.45;12.88;;;;;;;9.42;100.00;62969.63;4986660;28;20517;-78
2022/12/09 09:14:20;;;;;;;25.02;13.77;;;;;;;9.58;100.00;62980.56;4985029;28;20238;-78
2022/12/09 09:16:49;;;;;;;33.25;14.48;;;;;;;9.89;100.00;63015.69;4968403;28;20221;-80
2022/12/09 09:19:19;;;;;;;34.30;12.60;;;;;;;10.17;100.00;63047.22;4969100;28;20224;-79
2022/12/09 09:21:46;;;;;;;25.77;13.98;;;;;;;10.30;100.00;63060.16;4980667;28;20279;-78
2022/12/09 09:24:16;;;;;;;38.92;14.38;;;;;;;10.45;100.00;63075.69;4987642;28;20200;-78
2022/12/09 09:26:47;;;;;;;33.08;13.00;;;;;;;10.53;100.00;63080.91;4988122;28;20220;-78
2022/12/09 09:29:15;;;;;;;31.10;14.05;;;;;;;10.31;100.00;63056.63;4986240;28;20204;-80
2022/12/09 09:31:42;;;;;;;31.35;13.23;;;;;;;10.40;100.00;63067.97;4984090;28;20235;-78
2022/12/09 09:34:10;;;;;;;32.83;14.20;;;;;;;10.46;100.00;63077.22;4989358;28;20246;-80
2022/12/09 09:36:38;;;;;;;27.23;13.80;;;;;;;10.61;100.00;63089.16;4986361;28;20412;-80
2022/12/09 09:39:05;;;;;;;30.45;13.25;;;;;;;10.81;100.00;63115.47;4988803;28;20222;-81
2022/12/09 09:41:43;;;;;;;29.65;13.90;;;;;;;10.81;100.00;63107.31;4988741;28;20246;-80
2022/12/09 09:44:19;;;;;;;35.53;13.70;;;;;;;10.79;100.00;63107.78;4988639;28;20308;-79
2022/12/09 09:46:48;;;;;;;28.88;13.98;;;;;;;10.94;100.00;63126.38;4988531;28;20224;-80
2022/12/09 09:49:23;;;;;;;31.80;14.40;;;;;;;11.04;100.00;63134.22;4989214;28;20196;-79
2022/12/09 09:51:50;;;;;;;33.95;13.60;;;;;;;11.08;100.00;63140.88;4987624;28;20222;-79
2022/12/09 09:54:19;;;;;;;34.30;14.07;;;;;;;11.18;100.00;63148.19;4985961;28;20227;-78
2022/12/09 09:56:53;;;;;;;31.60;15.13;;;;;;;11.12;100.00;63141.97;4986277;28;20223;-78
2022/12/09 09:59:29;;;;;;;29.85;13.30;;;;;;;11.11;100.00;63141.44;4978208;28;20200;-80
2022/12/09 10:02:05;;;;;;;27.67;14.40;;;;;;;11.09;100.00;63141.94;4969339;28;20251;-79
2022/12/09 10:04:47;;;;;;;28.15;14.35;;;;;;;11.30;100.00;63163.16;4985846;28;20206;-78
2022/12/09 10:07:20;;;;;;;29.77;14.60;;;;;;;11.26;100.00;63159.53;4986356;28;20215;-78
2022/12/09 10:09:55;;;;;;;28.48;14.95;;;;;;;11.27;100.00;63160.56;4987202;28;20196;-78
2022/12/09 10:12:30;;;;;;;33.20;15.48;;;;;;;11.42;100.00;63173.53;4986424;28;20315;-80
2022/12/09 10:15:13;;;;;;;31.73;14.95;;;;;;;11.50;100.00;63183.88;4988490;28;20235;-78
2022/12/09 10:17:48;;;;;;;28.25;12.90;;;;;;;11.58;100.00;63190.13;4986285;28;20238;-78
2022/12/09 10:20:20;;;;;;;29.55;12.25;;;;;;;11.37;100.00;63170.41;4988788;28;20206;-80
2022/12/09 10:22:51;;;;;;;28.58;13.55;;;;;;;11.34;100.00;63164.75;4987519;28;20195;-79
2022/12/09 10:25:22;;;;;;;34.55;13.95;;;;;;;11.26;100.00;63159.00;4987301;28;20263;-78
2022/12/09 10:27:54;;;;;;;31.65;14.48;;;;;;;11.36;100.00;63166.81;4986577;28;20449;-79
2022/12/09 10:30:21;;;;;;;35.17;12.05;;;;;;;11.35;100.00;63168.84;4989108;28;20231;-80
2022/12/09 10:32:49;;;;;;;34.88;13.23;;;;;;;11.29;100.00;63157.00;4987274;28;20382;-79
2022/12/09 10:35:28;;;;;;;35.83;14.40;;;;;;;11.40;100.00;63179.13;4988249;28;20262;-79
2022/12/09 10:38:25;;;;;;;38.67;13.80;;;;;;;11.54;100.00;63188.03;4987228;28;20266;-78
2022/12/09 10:41:05;;;;;;;34.85;14.85;;;;;;;11.58;100.00;63192.66;4987554;28;20227;-79
2022/12/09 10:43:33;;;;;;;30.70;13.25;;;;;;;11.56;100.00;63190.59;4987550;28;20226;-78
2022/12/09 10:46:02;;;;;;;34.50;13.48;;;;;;;11.80;100.00;63212.44;4988546;28;20284;-78
2022/12/09 10:48:31;;;;;;;32.25;13.70;;;;;;;11.75;100.00;63201.63;4986198;28;20224;-79
2022/12/09 10:51:03;;;;;;;26.00;12.98;;;;;;;11.70;100.00;63207.16;4982700;28;20212;-78
2022/12/09 10:53:31;;;;;;;27.20;14.20;;;;;;;11.93;100.00;63225.38;4983631;28;20379;-77
2022/12/09 10:56:01;;;;;;;39.22;12.70;;;;;;;12.05;100.00;63238.31;4982019;28;20212;-81
2022/12/09 10:58:30;;;;;;;33.92;12.13;;;;;;;12.19;99.91;63250.28;4975213;28;20193;-79
2022/12/09 11:01:10;;;;;;;29.65;12.88;;;;;;;11.81;100.00;63216.00;4981655;28;20236;-78
2022/12/09 11:03:40;;;;;;;32.50;15.50;;;;;;;11.81;100.00;63210.38;4988186;28;20235;-79
2022/12/09 11:06:25;;;;;;;32.30;14.68;;;;;;;12.10;100.00;63248.59;4986322;28;20228;-80
2022/12/09 11:08:56;;;;;;;44.50;15.52;;;;;;;12.22;100.00;63258.50;4984743;28;20200;-79
2022/12/09 11:11:42;;;;;;;35.75;14.80;;;;;;;12.19;98.80;63252.84;4979301;28;20221;-77
2022/12/09 11:14:24;;;;;;;36.50;15.88;;;;;;;11.26;100.00;63157.00;4979721;28;20212;-79
2022/12/09 11:16:54;;;;;;;37.13;16.00;;;;;;;11.33;100.00;63166.25;4983716;28;20268;-78
2022/12/09 11:19:32;;;;;;;38.42;18.33;;;;;;;11.48;100.00;63181.78;4983655;28;20242;-78
2022/12/09 11:22:23;;;;;;;42.30;16.50;;;;;;;11.40;100.00;63170.97;4974850;28;20517;-80
2022/12/09 11:24:52;;;;;;;49.60;17.38;;;;;;;11.27;100.00;63157.50;4976144;28;20201;-81
2022/12/09 11:27:29;;;;;;;39.20;18.13;;;;;;;11.26;100.00;63153.91;4988103;28;20224;-78
2022/12/09 11:30:14;;;;;;;35.42;19.13;;;;;;;11.69;100.00;63203.06;4983307;28;20232;-80
2022/12/09 11:32:57;;;;;;;41.63;19.60;;;;;;;12.19;99.75;63254.88;4981678;28;20211;-78